sensor_id;sensor_type;location;lat;lon;timestamp;P1;durP1;ratioP1;P2;durP2;ratioP2
46651;SDS011;32377;52.182;5.398;2022-11-13T00:00:32;48.03;;;28.95;;
46651;SDS011;32377;52.182;5.398;2022-11-13T00:02:58;53.63;;;29.55;;
46651;SDS011;32377;52.182;5.398;2022-11-13T00:05:24;51.22;;;29.35;;
46651;SDS011;32377;52.182;5.398;2022-11-13T00:07:49;45.22;;;29.20;;
46651;SDS011;32377;52.182;5.398;2022-11-13T00:10:15;53.75;;;30.85;;
46651;SDS011;32377;52.182;5.398;2022-11-13T00:12:41;46.65;;;29.63;;
46651;SDS011;32377;52.182;5.398;2022-11-13T00:15:07;49.78;;;30.52;;
46651;SDS011;32377;52.182;5.398;2022-11-13T00:17:33;50.72;;;29.40;;
46651;SDS011;32377;52.182;5.398;2022-11-13T00:19:58;55.75;;;30.40;;
46651;SDS011;32377;52.182;5.398;2022-11-13T00:22:24;52.65;;;31.00;;
46651;SDS011;32377;52.182;5.398;2022-11-13T00:24:49;47.08;;;28.17;;
46651;SDS011;32377;52.182;5.398;2022-11-13T00:27:15;52.85;;;28.83;;
46651;SDS011;32377;52.182;5.398;2022-11-13T00:29:41;49.40;;;28.10;;
46651;SDS011;32377;52.182;5.398;2022-11-13T00:32:06;47.58;;;28.48;;
46651;SDS011;32377;52.182;5.398;2022-11-13T00:34:32;46.78;;;29.48;;
46651;SDS011;32377;52.182;5.398;2022-11-13T00:36:57;48.63;;;29.60;;
46651;SDS011;32377;52.182;5.398;2022-11-13T00:39:23;48.13;;;29.13;;
46651;SDS011;32377;52.182;5.398;2022-11-13T00:41:48;48.70;;;28.33;;
46651;SDS011;32377;52.182;5.398;2022-11-13T00:44:14;49.08;;;27.13;;
46651;SDS011;32377;52.182;5.398;2022-11-13T00:46:40;47.28;;;28.77;;
46651;SDS011;32377;52.182;5.398;2022-11-13T00:49:05;45.38;;;27.50;;
46651;SDS011;32377;52.182;5.398;2022-11-13T00:51:31;43.30;;;27.20;;
46651;SDS011;32377;52.182;5.398;2022-11-13T00:53:56;44.35;;;26.88;;
46651;SDS011;32377;52.182;5.398;2022-11-13T00:56:22;46.05;;;27.08;;
46651;SDS011;32377;52.182;5.398;2022-11-13T00:58:48;41.97;;;27.15;;
46651;SDS011;32377;52.182;5.398;2022-11-13T01:01:15;45.13;;;25.00;;
46651;SDS011;32377;52.182;5.398;2022-11-13T01:03:42;42.70;;;25.70;;
46651;SDS011;32377;52.182;5.398;2022-11-13T01:06:08;42.72;;;24.55;;
46651;SDS011;32377;52.182;5.398;2022-11-13T01:08:34;41.13;;;25.35;;
46651;SDS011;32377;52.182;5.398;2022-11-13T01:11:06;46.70;;;26.08;;
46651;SDS011;32377;52.182;5.398;2022-11-13T01:13:33;44.17;;;24.98;;
46651;SDS011;32377;52.182;5.398;2022-11-13T01:15:59;41.40;;;24.73;;
46651;SDS011;32377;52.182;5.398;2022-11-13T01:18:30;43.78;;;24.83;;
46651;SDS011;32377;52.182;5.398;2022-11-13T01:21:06;40.20;;;24.17;;
46651;SDS011;32377;52.182;5.398;2022-11-13T01:23:34;43.85;;;23.30;;
46651;SDS011;32377;52.182;5.398;2022-11-13T01:26:10;38.53;;;23.13;;
46651;SDS011;32377;52.182;5.398;2022-11-13T01:28:41;39.38;;;23.38;;
46651;SDS011;32377;52.182;5.398;2022-11-13T01:31:08;40.10;;;23.25;;
46651;SDS011;32377;52.182;5.398;2022-11-13T01:33:36;32.42;;;20.88;;
46651;SDS011;32377;52.182;5.398;2022-11-13T01:36:12;33.25;;;20.98;;
46651;SDS011;32377;52.182;5.398;2022-11-13T01:38:39;31.80;;;19.70;;
46651;SDS011;32377;52.182;5.398;2022-11-13T01:41:05;36.80;;;20.23;;
46651;SDS011;32377;52.182;5.398;2022-11-13T01:51:33;31.23;;;19.95;;
46651;SDS011;32377;52.182;5.398;2022-11-13T01:54:00;33.58;;;20.38;;
46651;SDS011;32377;52.182;5.398;2022-11-13T01:56:31;36.53;;;20.40;;
46651;SDS011;32377;52.182;5.398;2022-11-13T01:58:58;33.47;;;20.02;;
46651;SDS011;32377;52.182;5.398;2022-11-13T02:01:30;33.70;;;19.87;;
46651;SDS011;32377;52.182;5.398;2022-11-13T02:03:56;31.95;;;19.52;;
46651;SDS011;32377;52.182;5.398;2022-11-13T02:06:22;32.50;;;19.30;;
46651;SDS011;32377;52.182;5.398;2022-11-13T02:08:49;31.00;;;20.42;;
46651;SDS011;32377;52.182;5.398;2022-11-13T02:11:16;29.42;;;18.90;;
46651;SDS011;32377;52.182;5.398;2022-11-13T02:13:42;29.38;;;19.60;;
46651;SDS011;32377;52.182;5.398;2022-11-13T02:16:08;29.65;;;19.63;;
46651;SDS011;32377;52.182;5.398;2022-11-13T02:18:35;31.08;;;18.83;;
46651;SDS011;32377;52.182;5.398;2022-11-13T02:21:11;32.20;;;18.75;;
46651;SDS011;32377;52.182;5.398;2022-11-13T02:23:42;28.92;;;18.05;;
46651;SDS011;32377;52.182;5.398;2022-11-13T02:26:21;25.98;;;17.33;;
46651;SDS011;32377;52.182;5.398;2022-11-13T02:28:50;29.15;;;18.77;;
46651;SDS011;32377;52.182;5.398;2022-11-13T02:31:16;29.58;;;19.65;;
46651;SDS011;32377;52.182;5.398;2022-11-13T02:33:41;30.02;;;18.92;;
46651;SDS011;32377;52.182;5.398;2022-11-13T02:36:07;29.92;;;18.85;;
46651;SDS011;32377;52.182;5.398;2022-11-13T02:38:34;29.17;;;18.20;;
46651;SDS011;32377;52.182;5.398;2022-11-13T02:41:01;35.85;;;18.25;;
46651;SDS011;32377;52.182;5.398;2022-11-13T02:43:26;30.40;;;18.67;;
46651;SDS011;32377;52.182;5.398;2022-11-13T02:45:52;26.50;;;18.17;;
46651;SDS011;32377;52.182;5.398;2022-11-13T02:48:18;26.95;;;18.05;;
46651;SDS011;32377;52.182;5.398;2022-11-13T02:50:43;33.33;;;18.85;;
46651;SDS011;32377;52.182;5.398;2022-11-13T02:53:09;36.65;;;19.05;;
46651;SDS011;32377;52.182;5.398;2022-11-13T02:55:35;32.88;;;18.27;;
46651;SDS011;32377;52.182;5.398;2022-11-13T02:58:00;30.90;;;17.80;;
46651;SDS011;32377;52.182;5.398;2022-11-13T03:00:26;30.85;;;18.90;;
46651;SDS011;32377;52.182;5.398;2022-11-13T03:02:52;30.30;;;18.23;;
46651;SDS011;32377;52.182;5.398;2022-11-13T03:05:17;27.15;;;17.58;;
46651;SDS011;32377;52.182;5.398;2022-11-13T03:07:43;32.53;;;17.83;;
46651;SDS011;32377;52.182;5.398;2022-11-13T03:10:09;39.30;;;18.73;;
46651;SDS011;32377;52.182;5.398;2022-11-13T03:12:35;27.98;;;18.27;;
46651;SDS011;32377;52.182;5.398;2022-11-13T03:15:01;25.08;;;18.20;;
46651;SDS011;32377;52.182;5.398;2022-11-13T03:17:31;34.30;;;18.25;;
46651;SDS011;32377;52.182;5.398;2022-11-13T03:19:57;30.90;;;18.48;;
46651;SDS011;32377;52.182;5.398;2022-11-13T03:22:23;28.75;;;19.00;;
46651;SDS011;32377;52.182;5.398;2022-11-13T03:24:49;28.13;;;18.67;;
46651;SDS011;32377;52.182;5.398;2022-11-13T03:27:14;30.95;;;18.90;;
46651;SDS011;32377;52.182;5.398;2022-11-13T03:29:40;32.95;;;19.85;;
46651;SDS011;32377;52.182;5.398;2022-11-13T03:32:05;31.40;;;18.98;;
46651;SDS011;32377;52.182;5.398;2022-11-13T03:34:31;31.52;;;18.73;;
46651;SDS011;32377;52.182;5.398;2022-11-13T03:36:57;29.10;;;18.90;;
46651;SDS011;32377;52.182;5.398;2022-11-13T03:39:22;29.52;;;19.50;;
46651;SDS011;32377;52.182;5.398;2022-11-13T03:41:48;28.60;;;18.50;;
46651;SDS011;32377;52.182;5.398;2022-11-13T03:44:13;27.92;;;18.52;;
46651;SDS011;32377;52.182;5.398;2022-11-13T03:46:39;27.88;;;18.98;;
46651;SDS011;32377;52.182;5.398;2022-11-13T03:49:05;29.60;;;18.17;;
46651;SDS011;32377;52.182;5.398;2022-11-13T03:51:30;27.10;;;18.02;;
46651;SDS011;32377;52.182;5.398;2022-11-13T03:53:56;30.52;;;18.98;;
46651;SDS011;32377;52.182;5.398;2022-11-13T03:56:21;33.55;;;20.25;;
46651;SDS011;32377;52.182;5.398;2022-11-13T03:58:47;28.30;;;19.40;;
46651;SDS011;32377;52.182;5.398;2022-11-13T04:01:12;30.73;;;19.52;;
46651;SDS011;32377;52.182;5.398;2022-11-13T04:03:38;31.13;;;18.70;;
46651;SDS011;32377;52.182;5.398;2022-11-13T04:06:03;29.58;;;19.10;;
46651;SDS011;32377;52.182;5.398;2022-11-13T04:08:29;32.08;;;19.20;;
46651;SDS011;32377;52.182;5.398;2022-11-13T04:11:03;29.90;;;18.15;;
46651;SDS011;32377;52.182;5.398;2022-11-13T04:13:33;29.45;;;18.63;;
46651;SDS011;32377;52.182;5.398;2022-11-13T04:15:58;27.98;;;18.50;;
46651;SDS011;32377;52.182;5.398;2022-11-13T04:18:24;33.30;;;18.48;;
46651;SDS011;32377;52.182;5.398;2022-11-13T04:20:49;26.27;;;17.42;;
46651;SDS011;32377;52.182;5.398;2022-11-13T04:23:15;32.40;;;17.98;;
46651;SDS011;32377;52.182;5.398;2022-11-13T04:25:42;26.15;;;17.58;;
46651;SDS011;32377;52.182;5.398;2022-11-13T04:28:08;27.58;;;18.00;;
46651;SDS011;32377;52.182;5.398;2022-11-13T04:30:35;26.48;;;17.38;;
46651;SDS011;32377;52.182;5.398;2022-11-13T04:33:00;30.00;;;18.33;;
46651;SDS011;32377;52.182;5.398;2022-11-13T04:35:26;25.52;;;17.30;;
46651;SDS011;32377;52.182;5.398;2022-11-13T04:37:52;25.73;;;17.38;;
46651;SDS011;32377;52.182;5.398;2022-11-13T04:40:17;26.95;;;17.70;;
46651;SDS011;32377;52.182;5.398;2022-11-13T04:42:43;28.73;;;18.25;;
46651;SDS011;32377;52.182;5.398;2022-11-13T04:45:16;25.40;;;17.33;;
46651;SDS011;32377;52.182;5.398;2022-11-13T04:47:46;25.42;;;16.85;;
46651;SDS011;32377;52.182;5.398;2022-11-13T04:50:12;23.88;;;16.80;;
46651;SDS011;32377;52.182;5.398;2022-11-13T04:52:39;25.05;;;17.20;;
46651;SDS011;32377;52.182;5.398;2022-11-13T04:55:05;28.48;;;16.67;;
46651;SDS011;32377;52.182;5.398;2022-11-13T04:57:31;27.50;;;16.40;;
46651;SDS011;32377;52.182;5.398;2022-11-13T04:59:57;26.30;;;16.38;;
46651;SDS011;32377;52.182;5.398;2022-11-13T05:02:23;32.63;;;17.92;;
46651;SDS011;32377;52.182;5.398;2022-11-13T05:04:48;26.17;;;17.48;;
46651;SDS011;32377;52.182;5.398;2022-11-13T05:07:14;29.40;;;16.77;;
46651;SDS011;32377;52.182;5.398;2022-11-13T05:09:39;25.80;;;17.73;;
46651;SDS011;32377;52.182;5.398;2022-11-13T05:12:05;27.65;;;18.02;;
46651;SDS011;32377;52.182;5.398;2022-11-13T05:14:35;28.63;;;18.58;;
46651;SDS011;32377;52.182;5.398;2022-11-13T05:17:02;28.23;;;18.25;;
46651;SDS011;32377;52.182;5.398;2022-11-13T05:19:28;29.05;;;18.35;;
46651;SDS011;32377;52.182;5.398;2022-11-13T05:21:54;32.88;;;18.00;;
46651;SDS011;32377;52.182;5.398;2022-11-13T05:24:20;30.33;;;18.30;;
46651;SDS011;32377;52.182;5.398;2022-11-13T05:26:45;32.47;;;19.17;;
46651;SDS011;32377;52.182;5.398;2022-11-13T05:29:11;32.55;;;18.90;;
46651;SDS011;32377;52.182;5.398;2022-11-13T05:31:36;27.95;;;18.35;;
46651;SDS011;32377;52.182;5.398;2022-11-13T05:34:02;32.30;;;18.98;;
46651;SDS011;32377;52.182;5.398;2022-11-13T05:36:29;28.38;;;18.10;;
46651;SDS011;32377;52.182;5.398;2022-11-13T05:38:54;32.40;;;18.55;;
46651;SDS011;32377;52.182;5.398;2022-11-13T05:41:20;33.17;;;20.17;;
46651;SDS011;32377;52.182;5.398;2022-11-13T05:43:46;29.73;;;18.70;;
46651;SDS011;32377;52.182;5.398;2022-11-13T05:46:14;31.15;;;19.08;;
46651;SDS011;32377;52.182;5.398;2022-11-13T05:48:54;27.70;;;18.45;;
46651;SDS011;32377;52.182;5.398;2022-11-13T05:51:22;30.95;;;19.95;;
46651;SDS011;32377;52.182;5.398;2022-11-13T05:53:49;27.70;;;19.90;;
46651;SDS011;32377;52.182;5.398;2022-11-13T05:56:16;32.67;;;19.33;;
46651;SDS011;32377;52.182;5.398;2022-11-13T05:58:49;31.33;;;19.48;;
46651;SDS011;32377;52.182;5.398;2022-11-13T06:01:23;28.98;;;19.73;;
46651;SDS011;32377;52.182;5.398;2022-11-13T06:03:57;29.13;;;19.27;;
46651;SDS011;32377;52.182;5.398;2022-11-13T06:06:24;28.98;;;20.13;;
46651;SDS011;32377;52.182;5.398;2022-11-13T06:08:51;28.58;;;18.73;;
46651;SDS011;32377;52.182;5.398;2022-11-13T06:11:19;32.00;;;19.23;;
46651;SDS011;32377;52.182;5.398;2022-11-13T06:13:46;32.70;;;20.10;;
46651;SDS011;32377;52.182;5.398;2022-11-13T06:16:15;30.30;;;19.35;;
46651;SDS011;32377;52.182;5.398;2022-11-13T06:18:42;29.63;;;19.13;;
46651;SDS011;32377;52.182;5.398;2022-11-13T06:21:10;29.77;;;18.45;;
46651;SDS011;32377;52.182;5.398;2022-11-13T06:23:38;29.63;;;19.02;;
46651;SDS011;32377;52.182;5.398;2022-11-13T06:26:08;31.98;;;18.95;;
46651;SDS011;32377;52.182;5.398;2022-11-13T06:28:36;25.85;;;18.23;;
46651;SDS011;32377;52.182;5.398;2022-11-13T06:31:05;28.67;;;18.90;;
46651;SDS011;32377;52.182;5.398;2022-11-13T06:33:36;29.55;;;19.45;;
46651;SDS011;32377;52.182;5.398;2022-11-13T06:36:03;30.85;;;19.30;;
46651;SDS011;32377;52.182;5.398;2022-11-13T06:38:34;31.92;;;19.27;;
46651;SDS011;32377;52.182;5.398;2022-11-13T06:41:00;37.83;;;20.10;;
46651;SDS011;32377;52.182;5.398;2022-11-13T06:43:27;27.70;;;19.05;;
46651;SDS011;32377;52.182;5.398;2022-11-13T06:45:54;28.35;;;18.50;;
46651;SDS011;32377;52.182;5.398;2022-11-13T06:48:20;33.30;;;19.83;;
46651;SDS011;32377;52.182;5.398;2022-11-13T06:50:47;31.10;;;20.02;;
46651;SDS011;32377;52.182;5.398;2022-11-13T06:53:12;28.88;;;19.48;;
46651;SDS011;32377;52.182;5.398;2022-11-13T06:55:45;29.98;;;18.95;;
46651;SDS011;32377;52.182;5.398;2022-11-13T06:58:12;36.67;;;20.23;;
46651;SDS011;32377;52.182;5.398;2022-11-13T07:00:39;29.52;;;18.35;;
46651;SDS011;32377;52.182;5.398;2022-11-13T07:03:05;29.70;;;19.40;;
46651;SDS011;32377;52.182;5.398;2022-11-13T07:05:38;30.23;;;19.88;;
46651;SDS011;32377;52.182;5.398;2022-11-13T07:08:04;30.05;;;20.00;;
46651;SDS011;32377;52.182;5.398;2022-11-13T07:10:29;31.57;;;19.17;;
46651;SDS011;32377;52.182;5.398;2022-11-13T07:12:57;33.83;;;19.43;;
46651;SDS011;32377;52.182;5.398;2022-11-13T07:15:24;31.97;;;20.17;;
46651;SDS011;32377;52.182;5.398;2022-11-13T07:17:50;28.90;;;19.27;;
46651;SDS011;32377;52.182;5.398;2022-11-13T07:20:15;30.23;;;20.52;;
46651;SDS011;32377;52.182;5.398;2022-11-13T07:22:41;30.13;;;20.27;;
46651;SDS011;32377;52.182;5.398;2022-11-13T07:25:07;31.20;;;20.00;;
46651;SDS011;32377;52.182;5.398;2022-11-13T07:27:33;31.53;;;20.10;;
46651;SDS011;32377;52.182;5.398;2022-11-13T07:29:58;28.00;;;19.90;;
46651;SDS011;32377;52.182;5.398;2022-11-13T07:32:24;29.92;;;19.08;;
46651;SDS011;32377;52.182;5.398;2022-11-13T07:34:50;31.63;;;19.85;;
46651;SDS011;32377;52.182;5.398;2022-11-13T07:37:15;29.83;;;19.60;;
46651;SDS011;32377;52.182;5.398;2022-11-13T07:39:41;28.15;;;19.13;;
46651;SDS011;32377;52.182;5.398;2022-11-13T07:42:07;29.23;;;19.92;;
46651;SDS011;32377;52.182;5.398;2022-11-13T07:44:33;32.50;;;21.75;;
46651;SDS011;32377;52.182;5.398;2022-11-13T07:46:59;29.13;;;20.08;;
46651;SDS011;32377;52.182;5.398;2022-11-13T07:49:24;34.85;;;21.70;;
46651;SDS011;32377;52.182;5.398;2022-11-13T07:51:50;33.45;;;22.10;;
46651;SDS011;32377;52.182;5.398;2022-11-13T07:54:16;35.97;;;23.63;;
46651;SDS011;32377;52.182;5.398;2022-11-13T07:56:42;34.38;;;22.80;;
46651;SDS011;32377;52.182;5.398;2022-11-13T07:59:08;30.83;;;21.02;;
46651;SDS011;32377;52.182;5.398;2022-11-13T08:01:34;33.17;;;21.80;;
46651;SDS011;32377;52.182;5.398;2022-11-13T08:04:00;31.13;;;22.48;;
46651;SDS011;32377;52.182;5.398;2022-11-13T08:06:25;35.88;;;22.52;;
46651;SDS011;32377;52.182;5.398;2022-11-13T08:08:52;26.77;;;19.75;;
46651;SDS011;32377;52.182;5.398;2022-11-13T08:11:18;29.27;;;20.60;;
46651;SDS011;32377;52.182;5.398;2022-11-13T08:13:43;32.25;;;20.65;;
46651;SDS011;32377;52.182;5.398;2022-11-13T08:16:09;34.47;;;22.17;;
46651;SDS011;32377;52.182;5.398;2022-11-13T08:18:35;36.35;;;21.75;;
46651;SDS011;32377;52.182;5.398;2022-11-13T08:21:01;31.23;;;20.77;;
46651;SDS011;32377;52.182;5.398;2022-11-13T08:23:28;31.00;;;21.05;;
46651;SDS011;32377;52.182;5.398;2022-11-13T08:25:55;33.67;;;20.27;;
46651;SDS011;32377;52.182;5.398;2022-11-13T08:28:21;30.08;;;19.83;;
46651;SDS011;32377;52.182;5.398;2022-11-13T08:30:46;29.50;;;19.77;;
46651;SDS011;32377;52.182;5.398;2022-11-13T08:33:12;28.58;;;19.58;;
46651;SDS011;32377;52.182;5.398;2022-11-13T08:35:38;26.58;;;18.30;;
46651;SDS011;32377;52.182;5.398;2022-11-13T08:38:04;24.10;;;17.63;;
46651;SDS011;32377;52.182;5.398;2022-11-13T08:40:32;26.75;;;17.70;;
46651;SDS011;32377;52.182;5.398;2022-11-13T08:43:02;26.58;;;17.65;;
46651;SDS011;32377;52.182;5.398;2022-11-13T08:45:29;23.80;;;16.60;;
46651;SDS011;32377;52.182;5.398;2022-11-13T08:48:01;22.48;;;15.98;;
46651;SDS011;32377;52.182;5.398;2022-11-13T08:50:28;21.58;;;15.02;;
46651;SDS011;32377;52.182;5.398;2022-11-13T08:52:55;22.45;;;15.38;;
46651;SDS011;32377;52.182;5.398;2022-11-13T08:55:22;18.75;;;14.60;;
46651;SDS011;32377;52.182;5.398;2022-11-13T08:57:48;18.92;;;14.55;;
46651;SDS011;32377;52.182;5.398;2022-11-13T09:00:14;19.15;;;14.30;;
46651;SDS011;32377;52.182;5.398;2022-11-13T09:02:40;19.05;;;14.15;;
46651;SDS011;32377;52.182;5.398;2022-11-13T09:05:06;20.13;;;13.50;;
46651;SDS011;32377;52.182;5.398;2022-11-13T09:07:32;20.02;;;14.02;;
46651;SDS011;32377;52.182;5.398;2022-11-13T09:09:57;23.52;;;14.00;;
46651;SDS011;32377;52.182;5.398;2022-11-13T09:12:23;19.35;;;13.13;;
46651;SDS011;32377;52.182;5.398;2022-11-13T09:14:49;19.20;;;13.27;;
46651;SDS011;32377;52.182;5.398;2022-11-13T09:17:15;19.40;;;13.68;;
46651;SDS011;32377;52.182;5.398;2022-11-13T09:19:41;17.55;;;13.18;;
46651;SDS011;32377;52.182;5.398;2022-11-13T09:22:06;17.52;;;13.27;;
46651;SDS011;32377;52.182;5.398;2022-11-13T09:24:32;16.50;;;12.43;;
46651;SDS011;32377;52.182;5.398;2022-11-13T09:26:58;20.70;;;13.75;;
46651;SDS011;32377;52.182;5.398;2022-11-13T09:29:23;21.02;;;14.10;;
46651;SDS011;32377;52.182;5.398;2022-11-13T09:31:51;19.95;;;14.13;;
46651;SDS011;32377;52.182;5.398;2022-11-13T09:34:16;20.35;;;13.43;;
46651;SDS011;32377;52.182;5.398;2022-11-13T09:36:42;23.98;;;13.80;;
46651;SDS011;32377;52.182;5.398;2022-11-13T09:39:08;22.17;;;13.88;;
46651;SDS011;32377;52.182;5.398;2022-11-13T09:41:36;22.42;;;14.82;;
46651;SDS011;32377;52.182;5.398;2022-11-13T09:44:06;21.33;;;13.52;;
46651;SDS011;32377;52.182;5.398;2022-11-13T09:46:46;16.70;;;12.45;;
46651;SDS011;32377;52.182;5.398;2022-11-13T09:49:17;17.00;;;12.95;;
46651;SDS011;32377;52.182;5.398;2022-11-13T09:51:50;19.25;;;12.68;;
46651;SDS011;32377;52.182;5.398;2022-11-13T09:54:17;17.10;;;12.38;;
46651;SDS011;32377;52.182;5.398;2022-11-13T10:13:14;20.85;;;12.77;;
46651;SDS011;32377;52.182;5.398;2022-11-13T10:15:51;19.52;;;12.02;;
46651;SDS011;32377;52.182;5.398;2022-11-13T10:18:28;17.08;;;11.32;;
46651;SDS011;32377;52.182;5.398;2022-11-13T10:21:09;19.02;;;12.40;;
46651;SDS011;32377;52.182;5.398;2022-11-13T10:23:57;18.13;;;11.10;;
46651;SDS011;32377;52.182;5.398;2022-11-13T10:26:28;16.27;;;11.50;;
46651;SDS011;32377;52.182;5.398;2022-11-13T10:29:15;15.85;;;11.20;;
46651;SDS011;32377;52.182;5.398;2022-11-13T10:31:42;18.73;;;11.50;;
46651;SDS011;32377;52.182;5.398;2022-11-13T10:34:13;18.02;;;12.20;;
46651;SDS011;32377;52.182;5.398;2022-11-13T10:39:10;17.13;;;11.63;;
46651;SDS011;32377;52.182;5.398;2022-11-13T10:41:56;19.73;;;12.43;;
46651;SDS011;32377;52.182;5.398;2022-11-13T10:44:22;19.17;;;10.75;;
46651;SDS011;32377;52.182;5.398;2022-11-13T10:49:40;16.17;;;11.20;;
46651;SDS011;32377;52.182;5.398;2022-11-13T10:52:42;16.35;;;11.55;;
46651;SDS011;32377;52.182;5.398;2022-11-13T10:55:16;19.80;;;11.35;;
46651;SDS011;32377;52.182;5.398;2022-11-13T10:57:53;15.25;;;10.43;;
46651;SDS011;32377;52.182;5.398;2022-11-13T11:00:24;16.33;;;10.98;;
46651;SDS011;32377;52.182;5.398;2022-11-13T11:02:51;16.42;;;10.23;;
46651;SDS011;32377;52.182;5.398;2022-11-13T11:05:17;15.48;;;9.90;;
46651;SDS011;32377;52.182;5.398;2022-11-13T11:07:45;15.40;;;9.85;;
46651;SDS011;32377;52.182;5.398;2022-11-13T11:10:22;14.82;;;9.18;;
46651;SDS011;32377;52.182;5.398;2022-11-13T11:12:57;13.18;;;8.85;;
46651;SDS011;32377;52.182;5.398;2022-11-13T11:18:32;15.32;;;9.32;;
46651;SDS011;32377;52.182;5.398;2022-11-13T11:21:05;11.93;;;8.25;;
46651;SDS011;32377;52.182;5.398;2022-11-13T11:23:46;14.23;;;8.50;;
46651;SDS011;32377;52.182;5.398;2022-11-13T11:26:29;14.85;;;8.48;;
46651;SDS011;32377;52.182;5.398;2022-11-13T11:29:05;11.07;;;8.23;;
46651;SDS011;32377;52.182;5.398;2022-11-13T11:31:48;16.38;;;9.02;;
46651;SDS011;32377;52.182;5.398;2022-11-13T11:34:30;16.73;;;9.25;;
46651;SDS011;32377;52.182;5.398;2022-11-13T11:37:18;15.27;;;9.00;;
46651;SDS011;32377;52.182;5.398;2022-11-13T11:42:17;12.45;;;8.43;;
46651;SDS011;32377;52.182;5.398;2022-11-13T11:47:57;19.33;;;7.95;;
46651;SDS011;32377;52.182;5.398;2022-11-13T11:50:43;13.82;;;8.30;;
46651;SDS011;32377;52.182;5.398;2022-11-13T11:53:26;12.32;;;7.28;;
46651;SDS011;32377;52.182;5.398;2022-11-13T12:26:16;9.55;;;6.00;;
46651;SDS011;32377;52.182;5.398;2022-11-13T12:32:01;10.00;;;6.00;;
46651;SDS011;32377;52.182;5.398;2022-11-13T12:34:50;10.02;;;6.35;;
46651;SDS011;32377;52.182;5.398;2022-11-13T12:37:21;14.25;;;6.28;;
46651;SDS011;32377;52.182;5.398;2022-11-13T12:39:53;7.72;;;6.30;;
46651;SDS011;32377;52.182;5.398;2022-11-13T12:42:28;12.65;;;6.60;;
46651;SDS011;32377;52.182;5.398;2022-11-13T12:45:04;14.60;;;6.18;;
46651;SDS011;32377;52.182;5.398;2022-11-13T12:47:51;8.32;;;5.78;;
46651;SDS011;32377;52.182;5.398;2022-11-13T12:50:22;10.70;;;5.72;;
46651;SDS011;32377;52.182;5.398;2022-11-13T12:53:01;11.15;;;5.78;;
46651;SDS011;32377;52.182;5.398;2022-11-13T12:55:30;9.07;;;6.35;;
46651;SDS011;32377;52.182;5.398;2022-11-13T12:58:10;10.30;;;5.80;;
46651;SDS011;32377;52.182;5.398;2022-11-13T13:03:19;13.93;;;7.07;;
46651;SDS011;32377;52.182;5.398;2022-11-13T13:06:19;8.73;;;6.40;;
46651;SDS011;32377;52.182;5.398;2022-11-13T13:08:50;14.65;;;6.40;;
46651;SDS011;32377;52.182;5.398;2022-11-13T13:11:30;14.63;;;6.60;;
46651;SDS011;32377;52.182;5.398;2022-11-13T13:14:13;10.02;;;5.45;;
46651;SDS011;32377;52.182;5.398;2022-11-13T13:17:08;12.93;;;5.95;;
46651;SDS011;32377;52.182;5.398;2022-11-13T13:19:42;7.78;;;5.00;;
46651;SDS011;32377;52.182;5.398;2022-11-13T13:22:09;10.40;;;5.60;;
46651;SDS011;32377;52.182;5.398;2022-11-13T13:24:37;9.38;;;5.35;;
46651;SDS011;32377;52.182;5.398;2022-11-13T13:27:25;7.80;;;4.95;;
46651;SDS011;32377;52.182;5.398;2022-11-13T13:29:53;9.77;;;4.63;;
46651;SDS011;32377;52.182;5.398;2022-11-13T13:32:35;7.28;;;4.97;;
46651;SDS011;32377;52.182;5.398;2022-11-13T13:35:36;9.45;;;5.38;;
46651;SDS011;32377;52.182;5.398;2022-11-13T13:38:16;10.10;;;5.43;;
46651;SDS011;32377;52.182;5.398;2022-11-13T13:46:15;6.20;;;3.70;;
46651;SDS011;32377;52.182;5.398;2022-11-13T13:48:46;5.82;;;3.85;;
46651;SDS011;32377;52.182;5.398;2022-11-13T13:53:51;5.53;;;3.97;;
46651;SDS011;32377;52.182;5.398;2022-11-13T13:56:19;7.43;;;4.32;;
46651;SDS011;32377;52.182;5.398;2022-11-13T13:58:46;8.35;;;4.30;;
46651;SDS011;32377;52.182;5.398;2022-11-13T14:01:13;7.43;;;3.35;;
46651;SDS011;32377;52.182;5.398;2022-11-13T14:03:50;10.73;;;4.13;;
46651;SDS011;32377;52.182;5.398;2022-11-13T14:06:36;7.70;;;3.00;;
46651;SDS011;32377;52.182;5.398;2022-11-13T14:09:17;5.50;;;2.78;;
46651;SDS011;32377;52.182;5.398;2022-11-13T14:11:43;7.72;;;3.15;;
46651;SDS011;32377;52.182;5.398;2022-11-13T14:14:19;5.60;;;2.65;;
46651;SDS011;32377;52.182;5.398;2022-11-13T14:16:49;4.30;;;2.85;;
46651;SDS011;32377;52.182;5.398;2022-11-13T14:19:20;4.57;;;3.00;;
46651;SDS011;32377;52.182;5.398;2022-11-13T14:21:47;5.80;;;2.22;;
46651;SDS011;32377;52.182;5.398;2022-11-13T14:27:07;4.00;;;2.22;;
46651;SDS011;32377;52.182;5.398;2022-11-13T14:29:38;2.90;;;2.13;;
46651;SDS011;32377;52.182;5.398;2022-11-13T14:32:14;3.55;;;2.15;;
46651;SDS011;32377;52.182;5.398;2022-11-13T14:34:45;5.35;;;2.05;;
46651;SDS011;32377;52.182;5.398;2022-11-13T14:40:01;6.07;;;2.80;;
46651;SDS011;32377;52.182;5.398;2022-11-13T14:42:42;3.53;;;2.13;;
46651;SDS011;32377;52.182;5.398;2022-11-13T14:45:18;2.88;;;2.03;;
46651;SDS011;32377;52.182;5.398;2022-11-13T14:48:01;3.40;;;2.20;;
46651;SDS011;32377;52.182;5.398;2022-11-13T14:50:47;5.10;;;2.50;;
46651;SDS011;32377;52.182;5.398;2022-11-13T14:53:28;5.20;;;2.22;;
46651;SDS011;32377;52.182;5.398;2022-11-13T14:55:56;4.07;;;2.58;;
46651;SDS011;32377;52.182;5.398;2022-11-13T14:58:32;4.07;;;2.22;;
46651;SDS011;32377;52.182;5.398;2022-11-13T15:01:11;5.80;;;2.40;;
46651;SDS011;32377;52.182;5.398;2022-11-13T15:03:42;6.80;;;2.40;;
46651;SDS011;32377;52.182;5.398;2022-11-13T15:06:11;4.30;;;2.38;;
46651;SDS011;32377;52.182;5.398;2022-11-13T15:08:59;3.90;;;2.38;;
46651;SDS011;32377;52.182;5.398;2022-11-13T15:11:25;4.22;;;2.80;;
46651;SDS011;32377;52.182;5.398;2022-11-13T15:13:51;4.40;;;2.85;;
46651;SDS011;32377;52.182;5.398;2022-11-13T15:16:18;5.05;;;2.53;;
46651;SDS011;32377;52.182;5.398;2022-11-13T15:18:48;5.10;;;2.92;;
46651;SDS011;32377;52.182;5.398;2022-11-13T15:21:16;3.13;;;2.42;;
46651;SDS011;32377;52.182;5.398;2022-11-13T15:23:42;3.97;;;2.40;;
46651;SDS011;32377;52.182;5.398;2022-11-13T15:26:11;4.95;;;2.42;;
46651;SDS011;32377;52.182;5.398;2022-11-13T15:28:37;6.68;;;2.53;;
46651;SDS011;32377;52.182;5.398;2022-11-13T15:31:17;5.68;;;3.20;;
46651;SDS011;32377;52.182;5.398;2022-11-13T15:33:48;6.50;;;3.10;;
46651;SDS011;32377;52.182;5.398;2022-11-13T15:36:13;6.00;;;3.40;;
46651;SDS011;32377;52.182;5.398;2022-11-13T15:38:39;8.32;;;3.15;;
46651;SDS011;32377;52.182;5.398;2022-11-13T15:41:09;5.78;;;3.83;;
46651;SDS011;32377;52.182;5.398;2022-11-13T15:43:38;7.78;;;4.10;;
46651;SDS011;32377;52.182;5.398;2022-11-13T15:46:12;7.45;;;4.35;;
46651;SDS011;32377;52.182;5.398;2022-11-13T15:48:42;7.47;;;4.28;;
46651;SDS011;32377;52.182;5.398;2022-11-13T15:51:15;13.13;;;6.72;;
46651;SDS011;32377;52.182;5.398;2022-11-13T15:53:45;11.82;;;8.65;;
46651;SDS011;32377;52.182;5.398;2022-11-13T15:56:23;12.95;;;9.23;;
46651;SDS011;32377;52.182;5.398;2022-11-13T15:58:50;14.43;;;9.80;;
46651;SDS011;32377;52.182;5.398;2022-11-13T16:01:15;12.57;;;7.80;;
46651;SDS011;32377;52.182;5.398;2022-11-13T16:03:41;12.63;;;9.85;;
46651;SDS011;32377;52.182;5.398;2022-11-13T16:06:08;13.07;;;8.43;;